sensor_id;sensor_type;location;lat;lon;timestamp;P1;durP1;ratioP1;P2;durP2;ratioP2
29044;SDS011;16133;49.486;12.176;2022-10-16T00:00:32;2.75;;;2.03;;
29044;SDS011;16133;49.486;12.176;2022-10-16T00:02:59;2.78;;;2.20;;
29044;SDS011;16133;49.486;12.176;2022-10-16T00:05:24;3.88;;;2.50;;
29044;SDS011;16133;49.486;12.176;2022-10-16T00:07:49;4.38;;;2.30;;
29044;SDS011;16133;49.486;12.176;2022-10-16T00:10:15;3.38;;;2.50;;
29044;SDS011;16133;49.486;12.176;2022-10-16T00:12:40;4.68;;;2.30;;
29044;SDS011;16133;49.486;12.176;2022-10-16T00:15:06;3.80;;;2.28;;
29044;SDS011;16133;49.486;12.176;2022-10-16T00:17:32;3.50;;;2.30;;
29044;SDS011;16133;49.486;12.176;2022-10-16T00:19:57;4.00;;;2.35;;
29044;SDS011;16133;49.486;12.176;2022-10-16T00:22:23;2.47;;;2.00;;
29044;SDS011;16133;49.486;12.176;2022-10-16T00:24:49;4.15;;;2.83;;
29044;SDS011;16133;49.486;12.176;2022-10-16T00:27:14;4.40;;;1.98;;
29044;SDS011;16133;49.486;12.176;2022-10-16T00:29:40;3.60;;;1.92;;
29044;SDS011;16133;49.486;12.176;2022-10-16T00:32:05;2.65;;;2.10;;
29044;SDS011;16133;49.486;12.176;2022-10-16T00:34:30;3.25;;;2.13;;
29044;SDS011;16133;49.486;12.176;2022-10-16T00:36:56;2.90;;;2.60;;
29044;SDS011;16133;49.486;12.176;2022-10-16T00:39:21;4.50;;;2.50;;
29044;SDS011;16133;49.486;12.176;2022-10-16T00:41:47;2.95;;;2.42;;
29044;SDS011;16133;49.486;12.176;2022-10-16T00:50:02;4.97;;;2.65;;
29044;SDS011;16133;49.486;12.176;2022-10-16T00:52:46;3.58;;;2.13;;
29044;SDS011;16133;49.486;12.176;2022-10-16T00:55:14;2.95;;;2.05;;
29044;SDS011;16133;49.486;12.176;2022-10-16T00:57:40;3.30;;;2.22;;
29044;SDS011;16133;49.486;12.176;2022-10-16T01:00:08;2.97;;;2.15;;
29044;SDS011;16133;49.486;12.176;2022-10-16T01:02:37;2.53;;;2.33;;
29044;SDS011;16133;49.486;12.176;2022-10-16T01:05:03;2.72;;;2.33;;
29044;SDS011;16133;49.486;12.176;2022-10-16T01:13:10;3.45;;;2.30;;
29044;SDS011;16133;49.486;12.176;2022-10-16T01:25:56;2.92;;;2.10;;
29044;SDS011;16133;49.486;12.176;2022-10-16T01:28:44;2.35;;;1.85;;
29044;SDS011;16133;49.486;12.176;2022-10-16T01:31:17;4.25;;;2.58;;
29044;SDS011;16133;49.486;12.176;2022-10-16T01:33:46;2.45;;;2.13;;
29044;SDS011;16133;49.486;12.176;2022-10-16T01:36:19;2.45;;;2.10;;
29044;SDS011;16133;49.486;12.176;2022-10-16T01:41:24;2.80;;;1.85;;
29044;SDS011;16133;49.486;12.176;2022-10-16T01:43:58;2.95;;;2.08;;
29044;SDS011;16133;49.486;12.176;2022-10-16T01:46:30;3.10;;;2.30;;
29044;SDS011;16133;49.486;12.176;2022-10-16T01:48:56;3.10;;;1.88;;
29044;SDS011;16133;49.486;12.176;2022-10-16T01:51:24;3.03;;;2.17;;
29044;SDS011;16133;49.486;12.176;2022-10-16T01:53:53;3.72;;;2.35;;
29044;SDS011;16133;49.486;12.176;2022-10-16T01:56:20;4.15;;;2.60;;
29044;SDS011;16133;49.486;12.176;2022-10-16T01:58:52;2.20;;;1.85;;
29044;SDS011;16133;49.486;12.176;2022-10-16T02:03:48;4.10;;;2.55;;
29044;SDS011;16133;49.486;12.176;2022-10-16T02:06:18;2.38;;;2.13;;
29044;SDS011;16133;49.486;12.176;2022-10-16T02:08:43;2.65;;;2.10;;
29044;SDS011;16133;49.486;12.176;2022-10-16T02:11:09;2.95;;;2.28;;
29044;SDS011;16133;49.486;12.176;2022-10-16T02:13:42;2.05;;;1.85;;
29044;SDS011;16133;49.486;12.176;2022-10-16T02:16:12;2.83;;;2.00;;
29044;SDS011;16133;49.486;12.176;2022-10-16T02:18:39;3.58;;;2.15;;
29044;SDS011;16133;49.486;12.176;2022-10-16T02:21:08;2.80;;;2.05;;
29044;SDS011;16133;49.486;12.176;2022-10-16T02:26:27;3.53;;;2.15;;
29044;SDS011;16133;49.486;12.176;2022-10-16T02:29:00;2.50;;;2.10;;
29044;SDS011;16133;49.486;12.176;2022-10-16T02:31:31;2.17;;;1.85;;
29044;SDS011;16133;49.486;12.176;2022-10-16T02:33:59;3.60;;;2.50;;
29044;SDS011;16133;49.486;12.176;2022-10-16T02:36:29;2.85;;;2.20;;
29044;SDS011;16133;49.486;12.176;2022-10-16T02:38:56;3.25;;;2.60;;
29044;SDS011;16133;49.486;12.176;2022-10-16T02:41:26;3.60;;;2.78;;
29044;SDS011;16133;49.486;12.176;2022-10-16T02:43:52;3.58;;;2.60;;
29044;SDS011;16133;49.486;12.176;2022-10-16T02:46:18;3.20;;;2.25;;
29044;SDS011;16133;49.486;12.176;2022-10-16T02:48:44;4.03;;;2.65;;
29044;SDS011;16133;49.486;12.176;2022-10-16T02:51:09;2.75;;;2.40;;
29044;SDS011;16133;49.486;12.176;2022-10-16T02:53:35;2.80;;;2.50;;
29044;SDS011;16133;49.486;12.176;2022-10-16T02:56:00;4.65;;;2.67;;
29044;SDS011;16133;49.486;12.176;2022-10-16T02:58:26;3.20;;;2.63;;
29044;SDS011;16133;49.486;12.176;2022-10-16T03:00:52;3.63;;;2.70;;
29044;SDS011;16133;49.486;12.176;2022-10-16T03:03:17;3.60;;;2.15;;
29044;SDS011;16133;49.486;12.176;2022-10-16T03:05:43;3.08;;;2.40;;
29044;SDS011;16133;49.486;12.176;2022-10-16T03:08:11;4.05;;;2.40;;
29044;SDS011;16133;49.486;12.176;2022-10-16T03:10:36;2.40;;;2.15;;
29044;SDS011;16133;49.486;12.176;2022-10-16T03:13:02;3.13;;;2.83;;
29044;SDS011;16133;49.486;12.176;2022-10-16T03:15:28;2.40;;;2.10;;
29044;SDS011;16133;49.486;12.176;2022-10-16T03:17:54;3.85;;;2.45;;
29044;SDS011;16133;49.486;12.176;2022-10-16T03:20:20;2.92;;;2.28;;
29044;SDS011;16133;49.486;12.176;2022-10-16T03:22:45;3.97;;;2.92;;
29044;SDS011;16133;49.486;12.176;2022-10-16T03:25:11;5.20;;;3.05;;
29044;SDS011;16133;49.486;12.176;2022-10-16T03:27:36;4.55;;;3.00;;
29044;SDS011;16133;49.486;12.176;2022-10-16T03:30:02;3.15;;;2.40;;
29044;SDS011;16133;49.486;12.176;2022-10-16T03:32:28;3.70;;;2.53;;
29044;SDS011;16133;49.486;12.176;2022-10-16T03:34:53;5.32;;;2.65;;
29044;SDS011;16133;49.486;12.176;2022-10-16T03:37:19;3.83;;;2.70;;
29044;SDS011;16133;49.486;12.176;2022-10-16T03:39:45;4.25;;;2.30;;
29044;SDS011;16133;49.486;12.176;2022-10-16T03:42:11;3.72;;;2.50;;
29044;SDS011;16133;49.486;12.176;2022-10-16T03:44:37;3.55;;;2.72;;
29044;SDS011;16133;49.486;12.176;2022-10-16T03:47:02;3.28;;;2.33;;
29044;SDS011;16133;49.486;12.176;2022-10-16T03:49:28;3.20;;;2.35;;
29044;SDS011;16133;49.486;12.176;2022-10-16T03:51:53;2.97;;;2.28;;
29044;SDS011;16133;49.486;12.176;2022-10-16T03:54:21;3.63;;;2.60;;
29044;SDS011;16133;49.486;12.176;2022-10-16T03:56:47;4.30;;;2.58;;
29044;SDS011;16133;49.486;12.176;2022-10-16T03:59:13;2.78;;;2.50;;
29044;SDS011;16133;49.486;12.176;2022-10-16T04:01:38;2.75;;;2.33;;
29044;SDS011;16133;49.486;12.176;2022-10-16T04:04:04;3.38;;;2.50;;
29044;SDS011;16133;49.486;12.176;2022-10-16T04:06:29;3.60;;;2.88;;
29044;SDS011;16133;49.486;12.176;2022-10-16T04:08:55;5.00;;;2.47;;
29044;SDS011;16133;49.486;12.176;2022-10-16T04:11:21;3.38;;;2.33;;
29044;SDS011;16133;49.486;12.176;2022-10-16T04:13:46;3.50;;;2.58;;
29044;SDS011;16133;49.486;12.176;2022-10-16T04:16:11;3.92;;;2.65;;
29044;SDS011;16133;49.486;12.176;2022-10-16T04:18:37;3.42;;;2.63;;
29044;SDS011;16133;49.486;12.176;2022-10-16T04:21:05;3.25;;;2.35;;
29044;SDS011;16133;49.486;12.176;2022-10-16T04:23:31;4.28;;;2.33;;
29044;SDS011;16133;49.486;12.176;2022-10-16T04:25:57;3.67;;;2.70;;
29044;SDS011;16133;49.486;12.176;2022-10-16T04:28:23;3.45;;;2.60;;
29044;SDS011;16133;49.486;12.176;2022-10-16T04:30:48;4.63;;;3.05;;
29044;SDS011;16133;49.486;12.176;2022-10-16T04:33:14;9.07;;;5.38;;
29044;SDS011;16133;49.486;12.176;2022-10-16T04:35:39;9.25;;;5.28;;
29044;SDS011;16133;49.486;12.176;2022-10-16T04:38:05;13.55;;;6.13;;
29044;SDS011;16133;49.486;12.176;2022-10-16T04:40:30;10.48;;;5.85;;
29044;SDS011;16133;49.486;12.176;2022-10-16T04:43:01;8.15;;;4.90;;
29044;SDS011;16133;49.486;12.176;2022-10-16T04:45:27;7.38;;;4.43;;
29044;SDS011;16133;49.486;12.176;2022-10-16T04:47:52;4.85;;;3.75;;
29044;SDS011;16133;49.486;12.176;2022-10-16T04:50:22;5.13;;;3.33;;
29044;SDS011;16133;49.486;12.176;2022-10-16T04:52:47;3.75;;;3.00;;
29044;SDS011;16133;49.486;12.176;2022-10-16T04:55:12;4.85;;;3.17;;
29044;SDS011;16133;49.486;12.176;2022-10-16T04:57:38;3.47;;;2.65;;
29044;SDS011;16133;49.486;12.176;2022-10-16T05:00:03;2.90;;;2.55;;
29044;SDS011;16133;49.486;12.176;2022-10-16T05:02:30;3.75;;;2.60;;
29044;SDS011;16133;49.486;12.176;2022-10-16T05:04:55;4.07;;;3.03;;
29044;SDS011;16133;49.486;12.176;2022-10-16T05:07:21;5.13;;;3.67;;
29044;SDS011;16133;49.486;12.176;2022-10-16T05:09:46;4.85;;;3.40;;
29044;SDS011;16133;49.486;12.176;2022-10-16T05:12:11;4.70;;;3.25;;
29044;SDS011;16133;49.486;12.176;2022-10-16T05:14:37;4.18;;;2.95;;
29044;SDS011;16133;49.486;12.176;2022-10-16T05:17:02;3.15;;;2.40;;
29044;SDS011;16133;49.486;12.176;2022-10-16T05:19:28;3.00;;;2.40;;
29044;SDS011;16133;49.486;12.176;2022-10-16T05:21:53;2.78;;;2.30;;
29044;SDS011;16133;49.486;12.176;2022-10-16T05:24:18;4.50;;;2.20;;
29044;SDS011;16133;49.486;12.176;2022-10-16T05:26:44;4.00;;;3.03;;
29044;SDS011;16133;49.486;12.176;2022-10-16T05:29:09;3.50;;;2.58;;
29044;SDS011;16133;49.486;12.176;2022-10-16T05:31:34;3.95;;;2.75;;
29044;SDS011;16133;49.486;12.176;2022-10-16T05:34:00;2.58;;;2.13;;
29044;SDS011;16133;49.486;12.176;2022-10-16T05:36:26;5.45;;;2.70;;
29044;SDS011;16133;49.486;12.176;2022-10-16T05:38:52;3.50;;;2.40;;
29044;SDS011;16133;49.486;12.176;2022-10-16T05:41:17;3.70;;;2.47;;
29044;SDS011;16133;49.486;12.176;2022-10-16T05:43:49;4.55;;;2.50;;
29044;SDS011;16133;49.486;12.176;2022-10-16T05:46:15;3.65;;;2.70;;
29044;SDS011;16133;49.486;12.176;2022-10-16T05:48:41;4.78;;;3.15;;
29044;SDS011;16133;49.486;12.176;2022-10-16T05:51:07;3.30;;;2.40;;
29044;SDS011;16133;49.486;12.176;2022-10-16T05:53:36;4.10;;;2.58;;
29044;SDS011;16133;49.486;12.176;2022-10-16T05:56:03;3.13;;;2.33;;
29044;SDS011;16133;49.486;12.176;2022-10-16T05:58:31;6.53;;;2.55;;
29044;SDS011;16133;49.486;12.176;2022-10-16T06:00:59;3.33;;;2.10;;
29044;SDS011;16133;49.486;12.176;2022-10-16T06:03:26;3.53;;;2.30;;
29044;SDS011;16133;49.486;12.176;2022-10-16T06:05:51;3.50;;;2.47;;
29044;SDS011;16133;49.486;12.176;2022-10-16T06:08:17;4.90;;;2.67;;
29044;SDS011;16133;49.486;12.176;2022-10-16T06:10:44;9.80;;;3.53;;
29044;SDS011;16133;49.486;12.176;2022-10-16T06:13:11;10.63;;;4.70;;
29044;SDS011;16133;49.486;12.176;2022-10-16T06:15:37;12.68;;;4.75;;
29044;SDS011;16133;49.486;12.176;2022-10-16T06:18:04;15.20;;;4.47;;
29044;SDS011;16133;49.486;12.176;2022-10-16T06:20:30;12.38;;;5.10;;
29044;SDS011;16133;49.486;12.176;2022-10-16T06:22:56;12.60;;;4.85;;
29044;SDS011;16133;49.486;12.176;2022-10-16T06:25:21;13.18;;;5.95;;
29044;SDS011;16133;49.486;12.176;2022-10-16T06:27:47;18.35;;;6.72;;
29044;SDS011;16133;49.486;12.176;2022-10-16T06:30:12;12.18;;;5.75;;
29044;SDS011;16133;49.486;12.176;2022-10-16T06:32:38;8.18;;;4.93;;
29044;SDS011;16133;49.486;12.176;2022-10-16T06:35:03;10.10;;;4.93;;
29044;SDS011;16133;49.486;12.176;2022-10-16T06:37:29;9.32;;;3.97;;
29044;SDS011;16133;49.486;12.176;2022-10-16T06:39:54;7.60;;;4.20;;
29044;SDS011;16133;49.486;12.176;2022-10-16T06:42:20;6.10;;;3.55;;
29044;SDS011;16133;49.486;12.176;2022-10-16T06:44:45;9.77;;;3.20;;
29044;SDS011;16133;49.486;12.176;2022-10-16T06:47:11;4.57;;;2.80;;
29044;SDS011;16133;49.486;12.176;2022-10-16T06:49:36;5.85;;;3.00;;
29044;SDS011;16133;49.486;12.176;2022-10-16T06:52:02;2.90;;;2.10;;
29044;SDS011;16133;49.486;12.176;2022-10-16T06:54:28;2.88;;;2.10;;
29044;SDS011;16133;49.486;12.176;2022-10-16T06:56:53;2.95;;;2.28;;
29044;SDS011;16133;49.486;12.176;2022-10-16T06:59:19;2.83;;;2.40;;
29044;SDS011;16133;49.486;12.176;2022-10-16T07:01:45;2.38;;;2.17;;
29044;SDS011;16133;49.486;12.176;2022-10-16T07:04:11;1.90;;;1.80;;
29044;SDS011;16133;49.486;12.176;2022-10-16T07:06:36;3.58;;;2.13;;
29044;SDS011;16133;49.486;12.176;2022-10-16T07:09:03;2.42;;;1.88;;
29044;SDS011;16133;49.486;12.176;2022-10-16T07:11:30;3.92;;;2.40;;
29044;SDS011;16133;49.486;12.176;2022-10-16T07:13:55;2.10;;;1.90;;
29044;SDS011;16133;49.486;12.176;2022-10-16T07:16:22;2.58;;;2.00;;
29044;SDS011;16133;49.486;12.176;2022-10-16T07:18:49;3.55;;;2.50;;
29044;SDS011;16133;49.486;12.176;2022-10-16T07:21:17;2.80;;;2.00;;
29044;SDS011;16133;49.486;12.176;2022-10-16T07:23:45;2.42;;;1.92;;
29044;SDS011;16133;49.486;12.176;2022-10-16T07:26:15;3.17;;;2.42;;
29044;SDS011;16133;49.486;12.176;2022-10-16T07:28:40;2.92;;;1.60;;
29044;SDS011;16133;49.486;12.176;2022-10-16T07:31:10;2.63;;;1.80;;
29044;SDS011;16133;49.486;12.176;2022-10-16T07:33:38;2.20;;;1.75;;
29044;SDS011;16133;49.486;12.176;2022-10-16T07:36:06;2.25;;;1.65;;
29044;SDS011;16133;49.486;12.176;2022-10-16T07:38:32;3.85;;;1.83;;
29044;SDS011;16133;49.486;12.176;2022-10-16T07:40:58;3.58;;;1.45;;
29044;SDS011;16133;49.486;12.176;2022-10-16T07:43:25;3.25;;;1.80;;
29044;SDS011;16133;49.486;12.176;2022-10-16T07:45:52;3.72;;;1.85;;
29044;SDS011;16133;49.486;12.176;2022-10-16T07:48:21;3.75;;;1.50;;
29044;SDS011;16133;49.486;12.176;2022-10-16T07:50:48;1.60;;;1.50;;
29044;SDS011;16133;49.486;12.176;2022-10-16T07:53:14;2.72;;;2.03;;
29044;SDS011;16133;49.486;12.176;2022-10-16T07:55:39;2.20;;;1.42;;
29044;SDS011;16133;49.486;12.176;2022-10-16T07:58:05;2.83;;;1.75;;
29044;SDS011;16133;49.486;12.176;2022-10-16T08:00:31;2.75;;;1.50;;
29044;SDS011;16133;49.486;12.176;2022-10-16T08:02:57;2.50;;;1.58;;
29044;SDS011;16133;49.486;12.176;2022-10-16T08:05:30;2.90;;;2.05;;
29044;SDS011;16133;49.486;12.176;2022-10-16T08:07:57;1.88;;;1.50;;
29044;SDS011;16133;49.486;12.176;2022-10-16T08:10:23;3.05;;;1.27;;
29044;SDS011;16133;49.486;12.176;2022-10-16T08:12:50;3.53;;;2.10;;
29044;SDS011;16133;49.486;12.176;2022-10-16T08:15:16;1.70;;;1.40;;
29044;SDS011;16133;49.486;12.176;2022-10-16T08:17:41;2.45;;;1.80;;
29044;SDS011;16133;49.486;12.176;2022-10-16T08:20:07;2.22;;;1.80;;
29044;SDS011;16133;49.486;12.176;2022-10-16T08:22:33;3.45;;;1.60;;
29044;SDS011;16133;49.486;12.176;2022-10-16T08:24:58;2.25;;;1.67;;
29044;SDS011;16133;49.486;12.176;2022-10-16T08:27:23;4.32;;;1.50;;
29044;SDS011;16133;49.486;12.176;2022-10-16T08:29:49;1.73;;;1.50;;
29044;SDS011;16133;49.486;12.176;2022-10-16T08:32:14;1.60;;;1.50;;
29044;SDS011;16133;49.486;12.176;2022-10-16T08:34:40;1.60;;;1.40;;
29044;SDS011;16133;49.486;12.176;2022-10-16T08:37:06;3.60;;;2.00;;
29044;SDS011;16133;49.486;12.176;2022-10-16T08:39:33;2.85;;;1.55;;
29044;SDS011;16133;49.486;12.176;2022-10-16T08:44:58;3.25;;;1.50;;
29044;SDS011;16133;49.486;12.176;2022-10-16T08:50:28;2.67;;;1.30;;
29044;SDS011;16133;49.486;12.176;2022-10-16T08:52:56;2.28;;;1.70;;
29044;SDS011;16133;49.486;12.176;2022-10-16T08:57:57;5.32;;;1.65;;
29044;SDS011;16133;49.486;12.176;2022-10-16T09:00:23;3.10;;;1.60;;
29044;SDS011;16133;49.486;12.176;2022-10-16T09:02:52;1.55;;;1.45;;
29044;SDS011;16133;49.486;12.176;2022-10-16T09:05:37;3.38;;;1.83;;
29044;SDS011;16133;49.486;12.176;2022-10-16T09:08:06;4.30;;;1.55;;
29044;SDS011;16133;49.486;12.176;2022-10-16T09:23:34;1.92;;;1.60;;
29044;SDS011;16133;49.486;12.176;2022-10-16T09:26:01;3.40;;;1.67;;
29044;SDS011;16133;49.486;12.176;2022-10-16T09:28:28;3.88;;;1.90;;
29044;SDS011;16133;49.486;12.176;2022-10-16T09:30:54;2.50;;;1.60;;
29044;SDS011;16133;49.486;12.176;2022-10-16T09:33:20;2.67;;;1.83;;
29044;SDS011;16133;49.486;12.176;2022-10-16T09:35:53;2.78;;;1.80;;
29044;SDS011;16133;49.486;12.176;2022-10-16T09:38:25;4.75;;;1.52;;
29044;SDS011;16133;49.486;12.176;2022-10-16T09:40:53;2.80;;;1.70;;
29044;SDS011;16133;49.486;12.176;2022-10-16T09:43:21;3.08;;;1.60;;
29044;SDS011;16133;49.486;12.176;2022-10-16T09:48:43;3.55;;;1.55;;
29044;SDS011;16133;49.486;12.176;2022-10-16T09:51:18;3.38;;;1.65;;
29044;SDS011;16133;49.486;12.176;2022-10-16T09:53:48;3.75;;;1.85;;
29044;SDS011;16133;49.486;12.176;2022-10-16T09:56:23;5.18;;;1.90;;
29044;SDS011;16133;49.486;12.176;2022-10-16T09:58:58;2.72;;;1.75;;
29044;SDS011;16133;49.486;12.176;2022-10-16T10:01:35;5.85;;;1.85;;
29044;SDS011;16133;49.486;12.176;2022-10-16T10:04:05;1.98;;;1.70;;
29044;SDS011;16133;49.486;12.176;2022-10-16T10:06:35;2.25;;;1.75;;
29044;SDS011;16133;49.486;12.176;2022-10-16T10:09:24;2.20;;;1.70;;
29044;SDS011;16133;49.486;12.176;2022-10-16T10:11:57;2.55;;;1.73;;
29044;SDS011;16133;49.486;12.176;2022-10-16T10:14:31;3.97;;;1.75;;
29044;SDS011;16133;49.486;12.176;2022-10-16T10:17:06;8.02;;;1.98;;
29044;SDS011;16133;49.486;12.176;2022-10-16T10:19:50;2.80;;;1.50;;
29044;SDS011;16133;49.486;12.176;2022-10-16T10:25:22;2.10;;;1.77;;
29044;SDS011;16133;49.486;12.176;2022-10-16T10:33:25;6.07;;;1.92;;
29044;SDS011;16133;49.486;12.176;2022-10-16T10:44:36;3.65;;;1.75;;
29044;SDS011;16133;49.486;12.176;2022-10-16T10:47:13;1.98;;;1.40;;
29044;SDS011;16133;49.486;12.176;2022-10-16T10:50:02;2.28;;;1.50;;
29044;SDS011;16133;49.486;12.176;2022-10-16T11:07:30;2.80;;;1.92;;
29044;SDS011;16133;49.486;12.176;2022-10-16T11:10:42;2.05;;;1.60;;
29044;SDS011;16133;49.486;12.176;2022-10-16T11:12:52;3.50;;;1.40;;
29044;SDS011;16133;49.486;12.176;2022-10-16T11:15:30;2.80;;;1.73;;
29044;SDS011;16133;49.486;12.176;2022-10-16T11:20:37;1.60;;;1.40;;
29044;SDS011;16133;49.486;12.176;2022-10-16T11:23:25;2.78;;;1.67;;
29044;SDS011;16133;49.486;12.176;2022-10-16T11:25:56;2.33;;;1.50;;
29044;SDS011;16133;49.486;12.176;2022-10-16T11:28:27;1.50;;;1.27;;
29044;SDS011;16133;49.486;12.176;2022-10-16T11:31:16;1.95;;;1.50;;
29044;SDS011;16133;49.486;12.176;2022-10-16T11:33:49;2.40;;;1.38;;
29044;SDS011;16133;49.486;12.176;2022-10-16T11:36:23;2.13;;;1.55;;
29044;SDS011;16133;49.486;12.176;2022-10-16T11:41:54;2.13;;;1.77;;
29044;SDS011;16133;49.486;12.176;2022-10-16T11:44:33;4.82;;;1.60;;
29044;SDS011;16133;49.486;12.176;2022-10-16T11:47:12;2.42;;;1.75;;
29044;SDS011;16133;49.486;12.176;2022-10-16T11:49:55;2.00;;;1.67;;
29044;SDS011;16133;49.486;12.176;2022-10-16T11:54:59;2.53;;;1.95;;
29044;SDS011;16133;49.486;12.176;2022-10-16T11:57:31;2.63;;;1.55;;
29044;SDS011;16133;49.486;12.176;2022-10-16T12:00:14;4.85;;;1.75;;
29044;SDS011;16133;49.486;12.176;2022-10-16T12:05:35;5.03;;;2.30;;
29044;SDS011;16133;49.486;12.176;2022-10-16T12:08:11;2.20;;;1.70;;
29044;SDS011;16133;49.486;12.176;2022-10-16T12:10:38;3.30;;;2.20;;
29044;SDS011;16133;49.486;12.176;2022-10-16T12:18:32;3.65;;;2.28;;
29044;SDS011;16133;49.486;12.176;2022-10-16T12:20:58;14.50;;;10.88;;
29044;SDS011;16133;49.486;12.176;2022-10-16T12:23:29;7.70;;;5.65;;
29044;SDS011;16133;49.486;12.176;2022-10-16T12:25:56;3.78;;;2.60;;
29044;SDS011;16133;49.486;12.176;2022-10-16T12:28:27;3.47;;;2.03;;
29044;SDS011;16133;49.486;12.176;2022-10-16T12:30:54;3.72;;;1.98;;
29044;SDS011;16133;49.486;12.176;2022-10-16T12:33:25;1.98;;;1.70;;
29044;SDS011;16133;49.486;12.176;2022-10-16T12:35:56;2.35;;;1.58;;
29044;SDS011;16133;49.486;12.176;2022-10-16T12:41:24;2.65;;;1.42;;
29044;SDS011;16133;49.486;12.176;2022-10-16T12:43:52;2.60;;;1.70;;
29044;SDS011;16133;49.486;12.176;2022-10-16T12:48:43;5.20;;;2.57;;
29044;SDS011;16133;49.486;12.176;2022-10-16T13:05:15;1.90;;;1.70;;
29044;SDS011;16133;49.486;12.176;2022-10-16T13:13:51;3.60;;;1.92;;
29044;SDS011;16133;49.486;12.176;2022-10-16T13:27:41;2.28;;;1.77;;
29044;SDS011;16133;49.486;12.176;2022-10-16T13:30:17;2.40;;;1.90;;
29044;SDS011;16133;49.486;12.176;2022-10-16T13:32:49;4.32;;;1.92;;
29044;SDS011;16133;49.486;12.176;2022-10-16T13:35:25;3.33;;;1.95;;
29044;SDS011;16133;49.486;12.176;2022-10-16T13:43:41;3.05;;;1.70;;
29044;SDS011;16133;49.486;12.176;2022-10-16T13:46:15;2.80;;;1.92;;
29044;SDS011;16133;49.486;12.176;2022-10-16T13:48:42;2.63;;;1.80;;
29044;SDS011;16133;49.486;12.176;2022-10-16T13:53:40;1.77;;;1.40;;
29044;SDS011;16133;49.486;12.176;2022-10-16T13:56:15;3.00;;;1.92;;
29044;SDS011;16133;49.486;12.176;2022-10-16T13:58:43;4.40;;;2.10;;
29044;SDS011;16133;49.486;12.176;2022-10-16T14:03:52;2.60;;;2.40;;
29044;SDS011;16133;49.486;12.176;2022-10-16T14:06:21;4.45;;;1.90;;
29044;SDS011;16133;49.486;12.176;2022-10-16T14:11:44;2.15;;;1.75;;
29044;SDS011;16133;49.486;12.176;2022-10-16T14:14:14;3.63;;;1.85;;
29044;SDS011;16133;49.486;12.176;2022-10-16T14:16:41;2.33;;;2.00;;
29044;SDS011;16133;49.486;12.176;2022-10-16T14:21:50;2.20;;;1.73;;
29044;SDS011;16133;49.486;12.176;2022-10-16T14:24:24;3.08;;;1.95;;
29044;SDS011;16133;49.486;12.176;2022-10-16T14:26:52;4.65;;;1.83;;
29044;SDS011;16133;49.486;12.176;2022-10-16T14:29:21;3.85;;;1.92;;
29044;SDS011;16133;49.486;12.176;2022-10-16T14:31:54;3.10;;;1.98;;
29044;SDS011;16133;49.486;12.176;2022-10-16T14:34:34;3.22;;;2.30;;
29044;SDS011;16133;49.486;12.176;2022-10-16T14:37:22;3.05;;;2.38;;
29044;SDS011;16133;49.486;12.176;2022-10-16T14:39:49;3.50;;;1.90;;
29044;SDS011;16133;49.486;12.176;2022-10-16T14:42:16;2.45;;;2.00;;
29044;SDS011;16133;49.486;12.176;2022-10-16T14:44:44;3.25;;;2.10;;
29044;SDS011;16133;49.486;12.176;2022-10-16T14:47:13;3.13;;;1.85;;
29044;SDS011;16133;49.486;12.176;2022-10-16T14:49:41;2.97;;;1.70;;
29044;SDS011;16133;49.486;12.176;2022-10-16T14:52:10;1.50;;;1.38;;
29044;SDS011;16133;49.486;12.176;2022-10-16T14:54:37;1.90;;;1.70;;
29044;SDS011;16133;49.486;12.176;2022-10-16T14:57:03;2.10;;;1.88;;
29044;SDS011;16133;49.486;12.176;2022-10-16T14:59:39;3.47;;;2.17;;
29044;SDS011;16133;49.486;12.176;2022-10-16T15:02:20;2.78;;;1.85;;
29044;SDS011;16133;49.486;12.176;2022-10-16T15:04:47;2.00;;;1.65;;
29044;SDS011;16133;49.486;12.176;2022-10-16T15:07:13;3.10;;;1.90;;
29044;SDS011;16133;49.486;12.176;2022-10-16T15:09:38;2.47;;;1.83;;
29044;SDS011;16133;49.486;12.176;2022-10-16T15:12:04;2.10;;;1.67;;
29044;SDS011;16133;49.486;12.176;2022-10-16T15:14:29;1.95;;;1.55;;
29044;SDS011;16133;49.486;12.176;2022-10-16T15:16:55;2.13;;;1.70;;
29044;SDS011;16133;49.486;12.176;2022-10-16T15:19:20;2.17;;;1.70;;
29044;SDS011;16133;49.486;12.176;2022-10-16T15:21:45;1.95;;;1.77;;
29044;SDS011;16133;49.486;12.176;2022-10-16T15:24:12;2.80;;;1.92;;
29044;SDS011;16133;49.486;12.176;2022-10-16T15:26:38;2.45;;;1.90;;
29044;SDS011;16133;49.486;12.176;2022-10-16T15:29:04;2.35;;;2.03;;
29044;SDS011;16133;49.486;12.176;2022-10-16T15:31:29;2.53;;;2.00;;
29044;SDS011;16133;49.486;12.176;2022-10-16T15:33:55;2.35;;;1.63;;
29044;SDS011;16133;49.486;12.176;2022-10-16T15:36:29;1.88;;;1.70;;
29044;SDS011;16133;49.486;12.176;2022-10-16T15:39:01;2.80;;;2.30;;
29044;SDS011;16133;49.486;12.176;2022-10-16T15:41:26;2.53;;;2.10;;
29044;SDS011;16133;49.486;12.176;2022-10-16T15:43:51;4.55;;;2.33;;
29044;SDS011;16133;49.486;12.176;2022-10-16T15:46:21;3.47;;;2.38;;
29044;SDS011;16133;49.486;12.176;2022-10-16T15:48:49;2.88;;;2.08;;
29044;SDS011;16133;49.486;12.176;2022-10-16T15:51:15;2.28;;;2.05;;
29044;SDS011;16133;49.486;12.176;2022-10-16T15:53:42;4.72;;;2.58;;
29044;SDS011;16133;49.486;12.176;2022-10-16T15:56:08;4.25;;;3.00;;
29044;SDS011;16133;49.486;12.176;2022-10-16T15:58:34;5.18;;;3.30;;
29044;SDS011;16133;49.486;12.176;2022-10-16T16:01:01;8.13;;;3.47;;
29044;SDS011;16133;49.486;12.176;2022-10-16T16:03:28;9.82;;;3.90;;
29044;SDS011;16133;49.486;12.176;2022-10-16T16:05:54;6.30;;;3.15;;
29044;SDS011;16133;49.486;12.176;2022-10-16T16:08:20;4.93;;;3.35;;
29044;SDS011;16133;49.486;12.176;2022-10-16T16:10:56;5.93;;;3.22;;
29044;SDS011;16133;49.486;12.176;2022-10-16T16:13:42;5.20;;;3.45;;
29044;SDS011;16133;49.486;12.176;2022-10-16T16:16:08;5.00;;;3.45;;
29044;SDS011;16133;49.486;12.176;2022-10-16T16:18:35;4.40;;;3.45;;
29044;SDS011;16133;49.486;12.176;2022-10-16T16:21:01;7.63;;;3.70;;
29044;SDS011;16133;49.486;12.176;2022-10-16T16:23:26;9.23;;;3.25;;
29044;SDS011;16133;49.486;12.176;2022-10-16T16:28:38;4.07;;;2.67;;
29044;SDS011;16133;49.486;12.176;2022-10-16T16:31:03;3.85;;;2.60;;
29044;SDS011;16133;49.486;12.176;2022-10-16T16:33:29;3.38;;;2.55;;
29044;SDS011;16133;49.486;12.176;2022-10-16T16:35:57;5.88;;;3.28;;
29044;SDS011;16133;49.486;12.176;2022-10-16T16:38:26;9.73;;;4.88;;
29044;SDS011;16133;49.486;12.176;2022-10-16T16:40:52;13.88;;;6.85;;
29044;SDS011;16133;49.486;12.176;2022-10-16T16:43:19;18.48;;;8.13;;
29044;SDS011;16133;49.486;12.176;2022-10-16T16:45:47;27.88;;;10.95;;
29044;SDS011;16133;49.486;12.176;2022-10-16T16:48:12;23.45;;;10.20;;
29044;SDS011;16133;49.486;12.176;2022-10-16T16:50:38;29.48;;;11.07;;
29044;SDS011;16133;49.486;12.176;2022-10-16T16:53:03;25.60;;;10.85;;
29044;SDS011;16133;49.486;12.176;2022-10-16T16:55:29;24.40;;;10.32;;
29044;SDS011;16133;49.486;12.176;2022-10-16T16:57:54;18.98;;;9.30;;
29044;SDS011;16133;49.486;12.176;2022-10-16T17:00:22;16.00;;;6.63;;
29044;SDS011;16133;49.486;12.176;2022-10-16T17:02:48;14.68;;;6.47;;
29044;SDS011;16133;49.486;12.176;2022-10-16T17:05:15;14.65;;;6.05;;
29044;SDS011;16133;49.486;12.176;2022-10-16T17:07:40;10.60;;;5.95;;
29044;SDS011;16133;49.486;12.176;2022-10-16T17:10:06;10.10;;;5.70;;
29044;SDS011;16133;49.486;12.176;2022-10-16T17:12:32;10.50;;;4.88;;
29044;SDS011;16133;49.486;12.176;2022-10-16T17:14:58;7.30;;;4.57;;
29044;SDS011;16133;49.486;12.176;2022-10-16T17:17:24;7.10;;;4.65;;